Time;durP1;ratioP1;P1;durP2;ratioP2;P2;SDS_P1;SDS_P2;PMS_P1;PMS_P2;Temp;Humidity;BMP_temperature;BMP_pressure;BME280_temperature;BME280_humidity;BME280_pressure;Samples;Min_cycle;Max_cycle;Signal;HPM_P1;HPM_P2
2023/04/29 00:00:10;;;;;;;1.20;1.20;;;10.60;99.90;;;;;;5071126;28;20069;-54
2023/04/29 00:02:35;;;;;;;1.35;1.30;;;10.60;99.90;;;;;;5071342;28;20097;-55
2023/04/29 00:05:03;;;;;;;1.23;1.23;;;10.60;99.90;;;;;;5071654;28;20047;-53
2023/04/29 00:07:31;;;;;;;1.10;1.10;;;10.60;99.90;;;;;;5070071;28;20078;-57
2023/04/29 00:09:57;;;;;;;1.13;1.13;;;10.70;99.90;;;;;;5071280;28;20107;-51
2023/04/29 00:12:23;;;;;;;1.02;1.02;;;10.60;99.90;;;;;;5071091;28;20107;-55
2023/04/29 00:14:49;;;;;;;2.58;1.33;;;10.60;99.90;;;;;;5071383;28;20093;-57
2023/04/29 00:17:15;;;;;;;1.58;1.23;;;10.60;99.90;;;;;;5070307;28;20539;-56
2023/04/29 00:19:40;;;;;;;1.10;1.10;;;10.50;99.90;;;;;;5071240;28;20108;-54
2023/04/29 00:22:06;;;;;;;3.50;1.30;;;10.50;99.90;;;;;;5071156;28;20115;-52
2023/04/29 00:24:32;;;;;;;1.38;1.25;;;10.40;99.90;;;;;;5071084;28;20036;-51
2023/04/29 00:26:58;;;;;;;2.08;1.40;;;10.30;99.90;;;;;;5070917;28;20511;-53
2023/04/29 00:29:24;;;;;;;2.95;1.30;;;10.20;99.90;;;;;;5070524;28;20021;-54
2023/04/29 00:31:49;;;;;;;1.35;1.35;;;10.10;99.90;;;;;;5070672;28;20384;-50
2023/04/29 00:34:15;;;;;;;3.10;1.50;;;10.00;99.90;;;;;;5070441;28;20024;-50
2023/04/29 00:36:41;;;;;;;2.55;1.40;;;9.90;99.90;;;;;;5070550;28;20025;-51
2023/04/29 00:39:06;;;;;;;1.67;1.25;;;9.80;99.90;;;;;;5070931;28;20522;-52
2023/04/29 00:41:32;;;;;;;5.38;1.42;;;9.70;99.90;;;;;;5069756;28;20028;-54
2023/04/29 00:43:58;;;;;;;2.40;1.70;;;9.60;99.90;;;;;;5071898;28;20135;-53
2023/04/29 00:46:23;;;;;;;1.60;1.30;;;9.50;99.90;;;;;;5073442;28;20123;-55
2023/04/29 00:48:49;;;;;;;4.88;1.70;;;9.50;99.90;;;;;;5074700;28;20021;-56
2023/04/29 00:51:16;;;;;;;2.10;1.63;;;9.50;99.90;;;;;;5074821;28;20036;-57
2023/04/29 00:53:42;;;;;;;3.40;1.50;;;9.50;99.90;;;;;;5074838;28;20122;-52
2023/04/29 00:56:09;;;;;;;1.45;1.30;;;9.50;99.90;;;;;;5074398;28;20098;-54
2023/04/29 00:58:35;;;;;;;2.50;1.63;;;9.60;99.90;;;;;;5073885;28;20032;-56
2023/04/29 01:01:02;;;;;;;1.90;1.80;;;9.60;99.90;;;;;;5073902;28;20101;-53
2023/04/29 01:03:29;;;;;;;2.30;1.70;;;9.60;99.90;;;;;;5073991;28;20103;-57
2023/04/29 01:06:28;;;;;;;1.50;1.40;;;9.60;99.90;;;;;;5074303;28;20052;-53
2023/04/29 01:09:06;;;;;;;2.08;1.63;;;9.60;99.90;;;;;;5074314;28;20064;-52
2023/04/29 01:11:45;;;;;;;3.45;1.60;;;9.60;99.90;;;;;;5074418;28;20036;-56
2023/04/29 01:14:11;;;;;;;1.67;1.50;;;9.60;99.90;;;;;;5074513;28;20024;-55
2023/04/29 01:16:43;;;;;;;3.42;1.60;;;9.60;99.90;;;;;;5074194;28;20016;-55
2023/04/29 01:19:45;;;;;;;2.70;1.75;;;9.60;99.90;;;;;;5074174;28;20021;-53
2023/04/29 01:22:13;;;;;;;2.03;1.60;;;9.60;99.90;;;;;;5074167;28;20071;-58
2023/04/29 01:24:39;;;;;;;2.17;1.65;;;9.50;99.90;;;;;;5074193;28;20476;-53
2023/04/29 01:27:20;;;;;;;2.35;1.70;;;9.50;99.90;;;;;;5074031;28;20020;-55
2023/04/29 01:30:42;;;;;;;2.50;1.88;;;9.40;99.90;;;;;;5072823;28;20025;-57
2023/04/29 01:33:36;;;;;;;4.82;1.80;;;9.40;99.90;;;;;;5051370;28;20061;-53
2023/04/29 01:36:21;;;;;;;2.35;1.55;;;9.40;99.90;;;;;;5034699;28;20029;-56
2023/04/29 01:38:55;;;;;;;1.90;1.80;;;9.40;99.90;;;;;;5053477;28;20452;-56
2023/04/29 01:41:39;;;;;;;1.75;1.65;;;9.40;99.90;;;;;;5052594;28;20510;-55
2023/04/29 01:44:09;;;;;;;2.60;1.70;;;9.40;99.90;;;;;;5070154;28;20109;-53
2023/04/29 01:46:36;;;;;;;2.10;1.90;;;9.40;99.90;;;;;;5073696;28;20037;-52
2023/04/29 01:49:02;;;;;;;1.70;1.60;;;9.50;99.90;;;;;;5073717;28;20021;-54
2023/04/29 01:51:28;;;;;;;2.65;2.03;;;9.60;99.90;;;;;;5073781;28;20027;-55
2023/04/29 01:53:54;;;;;;;2.13;1.75;;;9.60;99.90;;;;;;5073588;28;20031;-57
2023/04/29 01:56:19;;;;;;;1.90;1.80;;;9.60;99.90;;;;;;5073101;28;20025;-55
2023/04/29 01:58:45;;;;;;;2.08;1.98;;;9.60;99.90;;;;;;5073646;28;20017;-57
2023/04/29 02:01:11;;;;;;;1.50;1.40;;;9.60;99.90;;;;;;5071664;28;20052;-57
2023/04/29 02:03:37;;;;;;;7.55;2.05;;;9.60;99.90;;;;;;5073439;28;20020;-58
2023/04/29 02:06:05;;;;;;;2.85;2.50;;;9.60;99.90;;;;;;5073506;28;20028;-55
2023/04/29 02:08:31;;;;;;;1.90;1.80;;;9.60;99.90;;;;;;5073440;28;20107;-54
2023/04/29 02:10:59;;;;;;;3.53;1.77;;;9.60;99.90;;;;;;5073247;28;20127;-54
2023/04/29 02:13:25;;;;;;;2.00;1.70;;;9.50;99.90;;;;;;5071814;28;20024;-57
2023/04/29 02:15:51;;;;;;;2.70;1.52;;;9.40;99.90;;;;;;5073364;28;20028;-54
2023/04/29 02:18:16;;;;;;;1.80;1.70;;;9.40;99.90;;;;;;5073194;28;20082;-52
2023/04/29 02:20:42;;;;;;;2.50;1.90;;;9.40;99.90;;;;;;5071699;28;20038;-54
2023/04/29 02:23:08;;;;;;;1.70;1.60;;;9.30;99.90;;;;;;5073006;28;20113;-56
2023/04/29 02:25:34;;;;;;;2.30;2.10;;;9.30;99.90;;;;;;5072987;28;20124;-54
2023/04/29 02:28:00;;;;;;;29.30;3.47;;;9.30;99.90;;;;;;5073122;28;20082;-53
2023/04/29 02:30:25;;;;;;;21.80;2.72;;;9.30;99.90;;;;;;5072490;28;20490;-51
2023/04/29 02:32:51;;;;;;;3.97;2.60;;;9.30;99.90;;;;;;5072764;28;20372;-55
2023/04/29 02:35:17;;;;;;;9.02;2.75;;;9.30;99.90;;;;;;5071440;28;20032;-56
2023/04/29 02:37:44;;;;;;;2.53;2.30;;;9.20;99.90;;;;;;5072858;28;20017;-54
2023/04/29 02:40:10;;;;;;;6.32;2.72;;;9.20;99.90;;;;;;5072929;28;20388;-56
2023/04/29 02:42:36;;;;;;;3.53;2.30;;;9.20;99.90;;;;;;5072482;28;20032;-50
2023/04/29 02:45:05;;;;;;;2.97;2.70;;;9.10;99.90;;;;;;5072557;28;20559;-56
2023/04/29 02:47:31;;;;;;;3.05;2.60;;;9.10;99.90;;;;;;5072342;28;20043;-56
2023/04/29 02:49:57;;;;;;;2.72;2.40;;;9.10;99.90;;;;;;5072471;28;20021;-53
2023/04/29 02:52:22;;;;;;;2.35;1.63;;;9.10;99.90;;;;;;5072428;28;20337;-55
2023/04/29 02:54:48;;;;;;;2.50;2.17;;;9.00;99.90;;;;;;5072376;28;20013;-56
2023/04/29 02:57:14;;;;;;;6.20;2.20;;;9.00;99.90;;;;;;5072368;28;20452;-51
2023/04/29 02:59:39;;;;;;;2.28;2.17;;;8.90;99.90;;;;;;5072242;28;20054;-51
2023/04/29 03:02:05;;;;;;;2.08;1.92;;;8.90;99.90;;;;;;5072350;28;20447;-53
2023/04/29 03:04:31;;;;;;;32.85;3.33;;;8.80;99.90;;;;;;5072186;28;20055;-57
2023/04/29 03:06:56;;;;;;;2.20;2.00;;;8.70;99.90;;;;;;5071450;28;20056;-56
2023/04/29 03:09:23;;;;;;;3.78;2.00;;;8.70;99.90;;;;;;5071817;28;20067;-51
2023/04/29 03:11:49;;;;;;;1.77;1.67;;;8.60;99.90;;;;;;5072010;28;20460;-55
2023/04/29 03:14:14;;;;;;;10.82;2.25;;;8.50;99.90;;;;;;5072128;28;20107;-56
2023/04/29 03:16:41;;;;;;;2.10;1.92;;;8.40;99.90;;;;;;5072117;28;20040;-54
2023/04/29 03:19:07;;;;;;;93.82;5.13;;;8.40;99.90;;;;;;5072125;28;20067;-53
2023/04/29 03:21:32;;;;;;;103.03;4.45;;;8.30;99.90;;;;;;5071948;28;20052;-56
2023/04/29 03:23:58;;;;;;;4.90;2.30;;;8.30;99.90;;;;;;5071822;28;20035;-55
2023/04/29 03:26:24;;;;;;;2.08;1.88;;;8.30;99.90;;;;;;5071609;28;20099;-56
2023/04/29 03:28:50;;;;;;;2.03;1.85;;;8.20;99.90;;;;;;5072232;28;20387;-54
2023/04/29 03:31:16;;;;;;;2.50;2.30;;;8.20;99.90;;;;;;5071638;28;20103;-56
2023/04/29 03:33:42;;;;;;;2.50;2.30;;;8.20;99.90;;;;;;5071860;28;20103;-55
2023/04/29 03:36:08;;;;;;;2.00;1.90;;;8.10;99.90;;;;;;5071904;28;20029;-55
2023/04/29 03:38:34;;;;;;;6.65;2.00;;;8.10;99.90;;;;;;5071525;28;20021;-54
2023/04/29 03:41:00;;;;;;;45.20;3.08;;;8.10;99.90;;;;;;5071689;28;20031;-53
2023/04/29 03:43:26;;;;;;;1.80;1.70;;;8.10;99.90;;;;;;5071613;28;20028;-58
2023/04/29 03:45:51;;;;;;;3.45;2.30;;;8.00;99.90;;;;;;5070201;28;20039;-51
2023/04/29 03:48:18;;;;;;;4.95;2.05;;;8.10;99.90;;;;;;5070988;28;20506;-53
2023/04/29 03:50:44;;;;;;;2.45;2.33;;;8.10;99.90;;;;;;5070261;28;20173;-55
2023/04/29 03:53:11;;;;;;;2.60;2.40;;;8.10;99.90;;;;;;5070540;28;20021;-52
2023/04/29 03:55:37;;;;;;;2.47;2.15;;;8.20;99.90;;;;;;5070127;28;20096;-55
2023/04/29 03:58:02;;;;;;;2.10;1.90;;;8.20;99.90;;;;;;5070665;28;20448;-56
2023/04/29 04:00:30;;;;;;;2.10;2.00;;;8.30;99.90;;;;;;5071072;28;20048;-51
2023/04/29 04:02:56;;;;;;;2.67;2.30;;;8.40;99.90;;;;;;5070749;28;20107;-51
2023/04/29 04:05:24;;;;;;;3.70;3.00;;;8.50;99.90;;;;;;5070593;28;20598;-50
2023/04/29 04:07:51;;;;;;;4.10;2.80;;;8.50;99.90;;;;;;5070673;28;20372;-52
2023/04/29 04:10:17;;;;;;;3.05;2.78;;;8.50;99.90;;;;;;5069979;28;20029;-54
2023/04/29 04:12:43;;;;;;;4.18;2.63;;;8.60;99.90;;;;;;5070871;28;20131;-55
2023/04/29 04:15:09;;;;;;;3.78;2.80;;;8.70;99.90;;;;;;5071180;28;20107;-53
2023/04/29 04:17:35;;;;;;;4.25;2.90;;;8.70;99.90;;;;;;5071472;28;20032;-54
2023/04/29 04:20:00;;;;;;;4.57;2.70;;;8.90;99.90;;;;;;5075488;28;20025;-55
2023/04/29 04:22:26;;;;;;;4.07;2.72;;;9.00;99.90;;;;;;5075316;28;20082;-53
2023/04/29 04:24:54;;;;;;;2.72;2.50;;;9.00;99.90;;;;;;5075315;28;20512;-53
2023/04/29 04:27:20;;;;;;;4.95;2.85;;;9.20;99.90;;;;;;5075163;28;20439;-56
2023/04/29 04:29:46;;;;;;;2.50;2.30;;;9.30;99.90;;;;;;5074801;28;21020;-55
2023/04/29 04:32:11;;;;;;;7.95;5.18;;;9.40;99.90;;;;;;5075331;28;20067;-56
2023/04/29 04:34:38;;;;;;;5.88;4.43;;;9.40;99.90;;;;;;5075009;28;20067;-51
2023/04/29 04:37:05;;;;;;;2.33;2.13;;;9.40;99.90;;;;;;5075243;28;20074;-57
2023/04/29 04:39:31;;;;;;;3.20;2.60;;;9.50;99.90;;;;;;5074930;28;20111;-53
2023/04/29 04:41:57;;;;;;;3.40;2.97;;;9.50;99.90;;;;;;5074981;28;20107;-56
2023/04/29 04:44:22;;;;;;;3.05;2.75;;;9.50;99.90;;;;;;5074759;28;20025;-53
2023/04/29 04:46:50;;;;;;;2.88;2.35;;;9.50;99.90;;;;;;5075075;28;20031;-56
2023/04/29 04:49:16;;;;;;;4.40;3.33;;;9.40;99.90;;;;;;5074697;28;20478;-55
2023/04/29 04:51:45;;;;;;;3.80;2.85;;;9.50;99.90;;;;;;5074900;28;20104;-56
2023/04/29 04:54:11;;;;;;;4.28;3.08;;;9.60;99.90;;;;;;5074742;28;20020;-54
2023/04/29 04:56:36;;;;;;;7.82;3.08;;;9.50;99.90;;;;;;5074646;28;20050;-54
2023/04/29 04:59:02;;;;;;;3.67;3.35;;;9.60;99.90;;;;;;5074923;28;20027;-54
2023/04/29 05:01:50;;;;;;;5.00;2.65;;;9.70;99.90;;;;;;5074665;28;20388;-56
2023/04/29 05:04:16;;;;;;;10.10;4.95;;;9.70;99.90;;;;;;5074484;28;20025;-57
2023/04/29 05:06:41;;;;;;;7.72;4.32;;;9.90;99.90;;;;;;5074690;28;20417;-54
2023/04/29 05:09:07;;;;;;;4.40;2.67;;;10.10;99.90;;;;;;5074378;28;20027;-52
2023/04/29 05:11:33;;;;;;;3.70;2.80;;;10.30;99.90;;;;;;5074297;28;20100;-56
2023/04/29 05:13:58;;;;;;;2.60;2.22;;;10.30;99.90;;;;;;5074558;28;20018;-56
2023/04/29 05:16:24;;;;;;;5.97;2.72;;;10.50;99.90;;;;;;5074178;28;20052;-56
2023/04/29 05:18:50;;;;;;;2.75;2.55;;;10.50;99.90;;;;;;5074471;28;20415;-52
2023/04/29 05:21:15;;;;;;;3.08;2.65;;;10.70;99.90;;;;;;5074176;28;20028;-57
2023/04/29 05:23:42;;;;;;;2.00;1.90;;;10.70;99.90;;;;;;5074356;28;20460;-56
2023/04/29 05:26:07;;;;;;;3.97;2.70;;;10.80;99.90;;;;;;5072777;28;20028;-57
2023/04/29 05:28:33;;;;;;;2.30;2.15;;;10.80;99.90;;;;;;5074164;28;20036;-53
2023/04/29 05:30:59;;;;;;;4.90;2.30;;;11.00;99.70;;;;;;5073395;28;20036;-54
2023/04/29 05:33:24;;;;;;;3.03;1.95;;;11.00;99.30;;;;;;5073994;28;20733;-54
2023/04/29 05:35:50;;;;;;;3.03;1.88;;;11.10;98.70;;;;;;5074010;28;20023;-56
2023/04/29 05:38:16;;;;;;;2.10;1.88;;;11.20;97.20;;;;;;5073776;28;20432;-55
2023/04/29 05:40:41;;;;;;;1.60;1.50;;;11.30;96.80;;;;;;5074050;28;20415;-56
2023/04/29 05:43:07;;;;;;;2.10;1.83;;;11.40;96.70;;;;;;5072637;28;20036;-53
2023/04/29 05:45:33;;;;;;;1.70;1.60;;;11.60;94.50;;;;;;5073724;28;20081;-56
2023/04/29 05:47:58;;;;;;;4.22;2.20;;;11.50;93.30;;;;;;5073920;28;20043;-57
2023/04/29 05:50:24;;;;;;;3.45;2.33;;;11.40;93.70;;;;;;5073664;28;20391;-56
2023/04/29 05:52:50;;;;;;;2.92;2.65;;;11.40;95.20;;;;;;5073562;28;20081;-58
2023/04/29 05:55:16;;;;;;;3.42;1.90;;;11.30;96.40;;;;;;5073512;28;20025;-57
2023/04/29 05:57:41;;;;;;;2.72;1.90;;;11.30;97.30;;;;;;5073887;28;20028;-53
2023/04/29 06:00:08;;;;;;;2.42;2.00;;;11.20;97.60;;;;;;5073340;28;20127;-52
2023/04/29 06:02:33;;;;;;;4.82;2.30;;;11.30;97.60;;;;;;5073355;28;20368;-52
2023/04/29 06:05:00;;;;;;;2.28;2.08;;;11.40;97.20;;;;;;5072229;28;20028;-56
2023/04/29 06:07:26;;;;;;;2.45;2.00;;;11.40;96.40;;;;;;5073237;28;20028;-56
2023/04/29 06:09:52;;;;;;;3.63;1.85;;;11.30;97.30;;;;;;5073247;28;20367;-56
2023/04/29 06:12:18;;;;;;;2.63;2.00;;;11.40;97.90;;;;;;5073039;28;20035;-51
2023/04/29 06:14:43;;;;;;;4.50;1.77;;;11.50;99.40;;;;;;5073210;28;20024;-56
2023/04/29 06:17:09;;;;;;;2.10;1.70;;;11.50;97.30;;;;;;5072008;28;20112;-57
2023/04/29 06:19:35;;;;;;;3.58;1.50;;;11.50;95.40;;;;;;5073381;28;20028;-55
2023/04/29 06:22:01;;;;;;;3.08;1.80;;;11.60;96.50;;;;;;5073049;28;20028;-56
2023/04/29 06:24:46;;;;;;;3.22;2.10;;;11.60;96.20;;;;;;5072543;28;20108;-56
2023/04/29 06:27:11;;;;;;;1.52;1.42;;;11.90;96.50;;;;;;5072837;28;20043;-55
2023/04/29 06:29:38;;;;;;;4.35;1.55;;;11.90;91.90;;;;;;5072249;28;20067;-56
2023/04/29 06:32:03;;;;;;;7.78;1.60;;;12.30;91.70;;;;;;5072289;28;20047;-54
2023/04/29 06:34:29;;;;;;;5.30;1.60;;;12.60;86.40;;;;;;5072519;28;20021;-54
2023/04/29 06:36:55;;;;;;;2.35;2.05;;;12.50;90.60;;;;;;5072422;28;20412;-56
2023/04/29 06:39:21;;;;;;;2.78;1.67;;;12.60;91.80;;;;;;5072405;28;20376;-57
2023/04/29 06:41:46;;;;;;;2.47;1.80;;;12.70;82.60;;;;;;5071649;28;20031;-53
2023/04/29 06:44:12;;;;;;;4.22;1.77;;;12.70;86.50;;;;;;5083413;28;20111;-57
2023/04/29 06:46:38;;;;;;;1.70;1.60;;;12.90;85.10;;;;;;5072465;28;20451;-57
2023/04/29 06:49:05;;;;;;;6.15;1.67;;;13.00;73.00;;;;;;5074674;28;20036;-55
2023/04/29 06:51:31;;;;;;;2.70;1.52;;;13.10;72.20;;;;;;5074615;28;20123;-58
2023/04/29 06:53:56;;;;;;;6.07;2.03;;;13.20;62.50;;;;;;5071930;28;20111;-57
2023/04/29 06:56:22;;;;;;;2.22;2.03;;;13.20;68.70;;;;;;5071921;28;20016;-56
2023/04/29 06:58:48;;;;;;;3.30;2.53;;;13.10;79.90;;;;;;5071757;28;20066;-56
2023/04/29 07:01:14;;;;;;;2.92;1.80;;;13.10;83.80;;;;;;5071497;28;20048;-58
2023/04/29 07:04:01;;;;;;;2.38;2.00;;;13.40;75.30;;;;;;5071915;28;20112;-53
2023/04/29 07:06:27;;;;;;;2.67;1.70;;;13.70;67.70;;;;;;5072021;28;20020;-58
2023/04/29 07:08:52;;;;;;;3.30;1.73;;;13.70;70.60;;;;;;5072169;28;20036;-58
2023/04/29 07:11:18;;;;;;;1.98;1.60;;;13.70;74.10;;;;;;5071965;28;20639;-59
2023/04/29 07:13:44;;;;;;;3.83;1.88;;;13.90;62.10;;;;;;5072124;28;20054;-59
2023/04/29 07:16:17;;;;;;;3.58;2.00;;;14.20;58.60;;;;;;5071890;28;20123;-57
2023/04/29 07:18:43;;;;;;;1.98;1.58;;;14.40;54.20;;;;;;5071951;28;20345;-56
2023/04/29 07:21:09;;;;;;;3.58;2.00;;;14.50;51.40;;;;;;5072106;28;20036;-56
2023/04/29 07:23:34;;;;;;;1.58;1.48;;;14.60;54.10;;;;;;5071623;28;20063;-59
2023/04/29 07:26:11;;;;;;;2.03;1.83;;;14.60;52.40;;;;;;5071816;28;20052;-62
2023/04/29 07:28:38;;;;;;;2.30;2.10;;;14.50;59.00;;;;;;5071807;28;20028;-61
2023/04/29 07:31:05;;;;;;;3.65;2.20;;;14.60;69.90;;;;;;5071821;28;20373;-62
2023/04/29 07:33:30;;;;;;;2.60;2.40;;;14.60;61.20;;;;;;5072333;28;20069;-61
2023/04/29 07:35:56;;;;;;;2.63;2.40;;;14.70;71.10;;;;;;5071309;28;20704;-60
2023/04/29 07:38:22;;;;;;;3.50;2.50;;;14.90;67.90;;;;;;5071546;28;20028;-62
2023/04/29 07:40:47;;;;;;;2.50;2.30;;;14.90;71.00;;;;;;5071500;28;20028;-61
2023/04/29 07:43:14;;;;;;;2.80;2.60;;;15.00;66.40;;;;;;5071784;28;20021;-58
2023/04/29 07:45:40;;;;;;;2.65;2.45;;;14.90;68.80;;;;;;5072069;28;20414;-58
2023/04/29 07:48:06;;;;;;;2.00;1.90;;;15.00;51.80;;;;;;5071627;28;20032;-58
2023/04/29 07:50:35;;;;;;;4.15;1.60;;;15.10;53.00;;;;;;5071484;28;20036;-57
2023/04/29 07:53:01;;;;;;;2.40;1.52;;;15.10;48.50;;;;;;5070946;28;20108;-56
2023/04/29 07:55:28;;;;;;;2.65;1.90;;;15.10;54.20;;;;;;5070786;28;20020;-52
2023/04/29 07:57:55;;;;;;;2.08;1.88;;;15.00;58.80;;;;;;5071603;28;20020;-57
2023/04/29 08:00:21;;;;;;;5.55;2.20;;;15.00;70.50;;;;;;5070996;28;20053;-57
2023/04/29 08:02:51;;;;;;;3.40;2.03;;;14.90;62.10;;;;;;5071458;28;20047;-58
2023/04/29 08:05:17;;;;;;;2.25;2.03;;;15.00;62.70;;;;;;5070995;28;20044;-55
2023/04/29 08:07:42;;;;;;;4.35;2.40;;;14.90;75.70;;;;;;5070722;28;20028;-55
2023/04/29 08:10:09;;;;;;;1.77;1.65;;;15.10;61.50;;;;;;5071067;28;20051;-52
2023/04/29 08:12:34;;;;;;;3.40;2.33;;;15.30;56.10;;;;;;5071274;28;20028;-55
2023/04/29 08:15:00;;;;;;;2.30;2.15;;;15.40;59.50;;;;;;5071229;28;20028;-56
2023/04/29 08:17:26;;;;;;;5.97;2.20;;;15.60;46.90;;;;;;5071072;28;20024;-57
2023/04/29 08:19:53;;;;;;;3.55;2.55;;;15.70;33.90;;;;;;5071360;28;20017;-56
2023/04/29 08:22:18;;;;;;;8.20;2.63;;;15.60;46.40;;;;;;5071008;28;20032;-54
2023/04/29 08:24:44;;;;;;;8.77;3.50;;;15.40;63.00;;;;;;5071406;28;20070;-56
2023/04/29 08:27:10;;;;;;;4.18;2.97;;;15.50;55.80;;;;;;5070855;28;20032;-55
2023/04/29 08:29:36;;;;;;;12.25;3.05;;;15.40;73.60;;;;;;5069630;28;20036;-56
2023/04/29 08:32:02;;;;;;;3.70;3.28;;;15.50;59.50;;;;;;5068956;28;20032;-54
2023/04/29 08:34:29;;;;;;;3.58;3.20;;;15.50;47.90;;;;;;5070969;28;20024;-54
2023/04/29 08:36:56;;;;;;;4.40;2.80;;;15.60;54.70;;;;;;5071022;28;20017;-54
2023/04/29 08:39:22;;;;;;;4.43;3.58;;;15.70;50.60;;;;;;5068893;28;20031;-53
2023/04/29 08:41:50;;;;;;;8.40;6.38;;;15.80;73.60;;;;;;5049754;28;20021;-55
2023/04/29 08:44:16;;;;;;;3.13;2.90;;;15.80;68.10;;;;;;5050760;28;20036;-55
2023/04/29 08:46:46;;;;;;;4.35;3.53;;;16.30;43.20;;;;;;5050942;28;20017;-56
2023/04/29 08:49:12;;;;;;;3.60;3.30;;;16.30;8.60;;;;;;5050587;28;20013;-57
2023/04/29 08:51:38;;;;;;;4.88;2.60;;;16.30;1.00;;;;;;5050428;28;20115;-56
2023/04/29 08:54:04;;;;;;;5.18;3.25;;;16.60;1.40;;;;;;5050348;28;20502;-56
2023/04/29 08:56:30;;;;;;;3.72;2.85;;;16.50;1.00;;;;;;5070181;28;20031;-56
2023/04/29 08:58:57;;;;;;;3.03;2.83;;;16.50;1.00;;;;;;5069441;28;20587;-56
2023/04/29 09:01:27;;;;;;;2.67;2.47;;;16.90;1.00;;;;;;5068142;28;20060;-53
2023/04/29 09:04:02;;;;;;;4.07;2.42;;;17.50;1.00;;;;;;5069699;28;20098;-53
2023/04/29 09:06:32;;;;;;;7.53;3.53;;;17.70;1.00;;;;;;5072760;28;20035;-55
2023/04/29 09:08:59;;;;;;;2.53;2.33;;;17.50;1.00;;;;;;5072500;28;20017;-58
2023/04/29 09:11:26;;;;;;;3.05;2.55;;;17.40;1.00;;;;;;5071784;28;20388;-56
2023/04/29 09:13:59;;;;;;;2.67;1.73;;;17.40;1.00;;;;;;5072065;28;20021;-52
2023/04/29 09:16:24;;;;;;;2.05;1.92;;;17.30;99.90;;;;;;5071309;28;20031;-53
2023/04/29 09:18:51;;;;;;;2.40;2.20;;;16.70;1.00;;;;;;5071855;28;20021;-57
2023/04/29 09:21:24;;;;;;;2.78;2.25;;;16.20;1.00;;;;;;5071926;28;20111;-56
2023/04/29 09:23:54;;;;;;;5.35;2.72;;;15.80;1.00;;;;;;5073157;28;20024;-58
2023/04/29 09:26:21;;;;;;;2.80;2.60;;;15.60;1.00;;;;;;5071550;28;20020;-58
2023/04/29 09:28:48;;;;;;;4.95;2.80;;;16.10;9.30;;;;;;5080179;28;20074;-53
2023/04/29 09:31:14;;;;;;;2.40;2.20;;;16.90;7.50;;;;;;5073262;28;20380;-57
2023/04/29 09:33:50;;;;;;;2.13;1.83;;;17.40;1.00;;;;;;5074111;28;20472;-57
2023/04/29 09:36:45;;;;;;;3.25;1.77;;;17.80;99.90;;;;;;5073985;28;20029;-57
2023/04/29 09:39:16;;;;;;;2.55;2.03;;;18.20;1.00;;;;;;5055648;28;20017;-56
2023/04/29 09:41:51;;;;;;;4.25;3.78;;;18.40;54.60;;;;;;5073892;28;20024;-53
2023/04/29 09:44:17;;;;;;;6.55;4.90;;;18.20;1.00;;;;;;5073409;28;20359;-54
2023/04/29 09:46:53;;;;;;;2.65;2.00;;;18.10;99.90;;;;;;5073592;28;20384;-53
2023/04/29 09:49:26;;;;;;;8.85;6.93;;;18.20;99.90;;;;;;5073907;28;20052;-58
2023/04/29 09:52:00;;;;;;;2.97;1.73;;;18.40;99.90;;;;;;5073280;28;20538;-52
2023/04/29 09:54:29;;;;;;;7.13;4.32;;;18.50;99.90;;;;;;5073495;28;20063;-57
2023/04/29 09:56:57;;;;;;;2.30;2.08;;;18.20;96.50;;;;;;5073403;28;20024;-58
2023/04/29 09:59:23;;;;;;;3.10;2.30;;;18.50;99.90;;;;;;5073169;28;20025;-55
2023/04/29 10:01:51;;;;;;;2.22;2.00;;;18.80;99.90;;;;;;5072783;28;20167;-58
2023/04/29 10:04:18;;;;;;;4.82;2.67;;;18.80;99.90;;;;;;5071730;28;20021;-58
2023/04/29 10:06:47;;;;;;;2.92;1.65;;;18.70;1.00;;;;;;5073342;28;20551;-54
2023/04/29 10:09:17;;;;;;;2.03;1.83;;;19.00;99.90;;;;;;5077455;28;20369;-57
2023/04/29 10:11:44;;;;;;;2.83;1.80;;;18.70;99.90;;;;;;5093400;28;20034;-55
2023/04/29 10:14:16;;;;;;;3.33;2.97;;;18.60;99.90;;;;;;5093169;28;20027;-58
2023/04/29 10:17:01;;;;;;;2.28;1.80;;;18.50;99.90;;;;;;5092874;28;20055;-55
2023/04/29 10:19:37;;;;;;;1.73;1.60;;;18.50;1.00;;;;;;5057868;28;20483;-59
2023/04/29 10:22:21;;;;;;;2.63;1.73;;;18.00;99.90;;;;;;5071651;28;20032;-58
2023/04/29 10:24:51;;;;;;;2.95;1.50;;;18.20;59.70;;;;;;5073096;28;20486;-59
2023/04/29 10:27:18;;;;;;;2.78;1.35;;;18.30;99.90;;;;;;5074586;28;20028;-58
2023/04/29 10:29:44;;;;;;;4.22;1.42;;;19.00;1.00;;;;;;5074455;28;20170;-58
2023/04/29 10:32:12;;;;;;;1.88;1.60;;;19.50;99.90;;;;;;5074016;28;20016;-56
2023/04/29 10:34:41;;;;;;;5.32;2.13;;;19.40;99.90;;;;;;5073221;28;20036;-58
2023/04/29 10:37:10;;;;;;;4.47;2.13;;;20.00;15.30;;;;;;5073142;28;20072;-55
2023/04/29 10:40:02;;;;;;;3.85;1.98;;;19.40;90.90;;;;;;5072953;28;20021;-57
2023/04/29 10:42:44;;;;;;;2.33;1.70;;;18.50;1.00;;;;;;5053819;28;20024;-58
2023/04/29 10:45:16;;;;;;;2.08;1.77;;;18.20;1.00;;;;;;5051377;28;20018;-58
2023/04/29 10:47:42;;;;;;;4.45;1.80;;;18.60;1.00;;;;;;5052786;28;20021;-59
2023/04/29 10:50:08;;;;;;;9.27;2.25;;;19.10;1.00;;;;;;5073696;28;20732;-57
2023/04/29 10:53:03;;;;;;;3.08;1.65;;;19.40;99.90;;;;;;5073407;28;20098;-58
2023/04/29 10:55:30;;;;;;;10.02;1.92;;;19.70;99.90;;;;;;5072923;28;20024;-57
2023/04/29 10:57:56;;;;;;;3.05;1.95;;;20.00;99.90;;;;;;5072231;28;20413;-59
2023/04/29 11:00:32;;;;;;;1.98;1.73;;;20.50;1.00;;;;;;5076752;28;20533;-59
2023/04/29 11:03:00;;;;;;;3.30;1.35;;;19.90;99.90;;;;;;5073397;28;20041;-57
2023/04/29 11:05:36;;;;;;;2.80;1.75;;;19.80;99.90;;;;;;5071783;28;20028;-59
2023/04/29 11:08:15;;;;;;;3.67;1.50;;;20.10;99.90;;;;;;5070381;28;20037;-59
2023/04/29 11:10:42;;;;;;;2.10;1.60;;;20.50;99.90;;;;;;5071582;28;20098;-59
2023/04/29 11:13:28;;;;;;;2.25;1.90;;;20.50;99.90;;;;;;5072726;28;20032;-59
2023/04/29 11:16:27;;;;;;;2.15;1.70;;;20.80;99.90;;;;;;5071921;28;20025;-58
2023/04/29 11:19:06;;;;;;;2.55;1.67;;;20.90;99.90;;;;;;5070706;28;20051;-59
2023/04/29 11:21:36;;;;;;;3.13;1.80;;;21.20;1.00;;;;;;5070402;28;20353;-59
2023/04/29 11:24:05;;;;;;;7.93;1.70;;;20.30;48.90;;;;;;5069906;28;20036;-58
2023/04/29 11:26:33;;;;;;;3.15;1.80;;;20.60;1.00;;;;;;5069086;28;20036;-58
2023/04/29 11:28:59;;;;;;;5.05;1.35;;;20.00;99.90;;;;;;5068324;28;20434;-59
2023/04/29 11:31:34;;;;;;;4.43;1.55;;;20.10;92.70;;;;;;5070448;28;20020;-58
2023/04/29 11:34:00;;;;;;;1.80;1.27;;;20.60;99.90;;;;;;5071669;28;20361;-58
2023/04/29 11:36:26;;;;;;;9.00;1.30;;;21.00;1.00;;;;;;5071323;28;20103;-59
2023/04/29 11:38:52;;;;;;;1.50;1.40;;;21.50;1.00;;;;;;5069310;28;20028;-59
2023/04/29 11:41:18;;;;;;;1.85;1.33;;;21.60;96.50;;;;;;5070784;28;20104;-55
2023/04/29 11:43:53;;;;;;;3.03;1.52;;;20.90;99.90;;;;;;5070843;28;20130;-58
2023/04/29 11:46:19;;;;;;;5.20;1.73;;;21.10;99.90;;;;;;5079341;28;20119;-59
2023/04/29 11:48:49;;;;;;;1.70;1.30;;;22.30;1.00;;;;;;5045503;28;20132;-59
2023/04/29 11:51:22;;;;;;;6.60;1.80;;;23.00;99.90;;;;;;5042381;28;20037;-59
2023/04/29 11:53:48;;;;;;;;;;;22.90;99.90;;;;;;5039612;28;20036;-59
2023/04/29 11:56:13;;;;;;;5.90;3.15;;;22.10;25.30;;;;;;5040944;28;19913;-59
2023/04/29 11:58:42;;;;;;;2.28;2.05;;;20.90;99.90;;;;;;5040363;28;20388;-58
2023/04/29 12:01:07;;;;;;;8.77;5.80;;;19.80;1.00;;;;;;5040845;28;20057;-59
2023/04/29 12:03:33;;;;;;;9.35;7.00;;;19.30;99.90;;;;;;5041769;28;20846;-59
2023/04/29 12:06:01;;;;;;;6.10;3.50;;;19.00;99.90;;;;;;5041118;28;20021;-59
2023/04/29 12:08:28;;;;;;;4.05;1.80;;;19.90;99.90;;;;;;5040282;28;20037;-59
2023/04/29 12:10:56;;;;;;;1.58;1.20;;;21.60;99.90;;;;;;5040927;28;20418;-59
2023/04/29 12:13:23;;;;;;;1.73;1.45;;;22.30;99.90;;;;;;5040588;28;20472;-59
2023/04/29 12:15:51;;;;;;;3.88;1.63;;;24.40;1.00;;;;;;5040859;28;20028;-59
2023/04/29 12:18:18;;;;;;;1.90;1.60;;;25.80;99.90;;;;;;5039357;28;20098;-59
2023/04/29 12:20:45;;;;;;;3.30;1.40;;;23.50;99.90;;;;;;5039530;28;20029;-59
2023/04/29 12:23:11;;;;;;;9.23;2.80;;;22.30;99.90;;;;;;5039790;28;20028;-59
2023/04/29 12:25:37;;;;;;;2.30;2.03;;;22.00;99.90;;;;;;5038587;28;20029;-59
2023/04/29 12:28:03;;;;;;;3.75;2.30;;;20.80;99.90;;;;;;5039957;28;20596;-59
2023/04/29 12:33:54;;;;;;;1.98;1.67;;;20.10;1.00;;;;;;5042371;28;20139;-58
2023/04/29 12:36:20;;;;;;;5.57;1.70;;;20.20;99.90;;;;;;5042767;28;20021;-59
2023/04/29 12:38:47;;;;;;;3.80;1.33;;;21.10;99.90;;;;;;5042585;28;20029;-59
2023/04/29 12:41:16;;;;;;;3.08;1.35;;;22.60;99.90;;;;;;5044697;28;20025;-59
2023/04/29 12:43:42;;;;;;;5.18;1.10;;;23.90;99.90;;;;;;5045024;28;20455;-59
2023/04/29 12:46:11;;;;;;;0.93;0.70;;;25.20;99.90;;;;;;5045444;28;20048;-59
2023/04/29 12:48:39;;;;;;;1.85;0.98;;;27.00;26.90;;;;;;5045046;28;20044;-59
2023/04/29 12:51:08;;;;;;;2.28;0.90;;;28.00;1.00;;;;;;5044438;28;20025;-59
2023/04/29 12:53:34;;;;;;;1.88;0.70;;;28.70;1.00;;;;;;5044490;28;20021;-59
2023/04/29 12:56:00;;;;;;;1.15;0.80;;;27.70;1.00;;;;;;5042664;28;20064;-59
2023/04/29 12:58:30;;;;;;;5.63;3.78;;;27.50;1.00;;;;;;5044204;28;20083;-59